Deer Lodge (38S)
Deer Lodge, MT
Field Elevation: 4692
Lat: 49°23.27N  Long: 112°45.89W
CTAF/Unicom Freq: 120.0250
   
     For Weather-by-Phone, call 406-846-1177
Weather Advisories
8/1/2014 03:37 Z
Altimeter 30.26" Hg
Wind 190° @ 5 KT
Gusts --
Visibility 10 SM
Temperature 21° C (70° F)
Dewpoint 6° C (43° F)
Relative Humidity 39%
Density Altitude 6,000 feet
Condensation Altitude 11,900 feet
  Wind and Runways
Indicated Runway = 13
History
 
 
More Info
All DigiWx sites map
Weather Radar
NOAA Forecast
 
Airport IQ 5010
(S59) Libby
(6S5) Ravalli County
 
about DigiWx
 
FAA Disclaimer: The data displayed is for advisory purposes only and is not to be used for flight planning or operations. For official data, please call 406-846-1177 to hear the current automated AWOS voice message.
  METAR 38S 010337Z AUTO 19005KT 10SM 21/06 A3026